Time;durP1;ratioP1;P1;durP2;ratioP2;P2;SDS_P1;SDS_P2;PMS_P1;PMS_P2;Temp;Humidity;BMP_temperature;BMP_pressure;BME280_temperature;BME280_humidity;BME280_pressure;Samples;Min_cycle;Max_cycle;Signal;HPM_P1;HPM_P2
2023/09/11 00:00:35;;;;;;;0.30;0.30;;;28.10;52.00;;;28.68;37.80;95068.34;5076994;28;20260;-20
2023/09/11 00:03:03;;;;;;;0.30;0.30;;;28.10;52.00;;;28.68;37.88;95067.50;5077162;28;20226;-20
2023/09/11 00:05:30;;;;;;;0.28;0.28;;;28.00;52.00;;;28.65;37.41;95063.53;5077037;28;20298;-20
2023/09/11 00:07:57;;;;;;;0.30;0.30;;;28.00;52.00;;;28.65;37.87;95060.81;5076951;28;20195;-20
2023/09/11 00:10:25;;;;;;;0.30;0.30;;;28.00;52.20;;;28.62;37.88;95058.72;5077337;28;20188;-20
2023/09/11 00:12:52;;;;;;;0.30;0.30;;;28.00;52.30;;;28.62;37.90;95066.81;5076616;28;20705;-20
2023/09/11 00:15:19;;;;;;;0.30;0.30;;;28.00;52.30;;;28.60;38.35;95056.34;5076647;28;20210;-20
2023/09/11 00:17:46;;;;;;;0.25;0.25;;;28.00;52.40;;;28.58;37.82;95052.34;5077363;28;20212;-20
2023/09/11 00:20:13;;;;;;;0.25;0.25;;;28.00;52.40;;;28.56;37.87;95044.56;5076735;28;20195;-20
2023/09/11 00:22:41;;;;;;;0.20;0.20;;;28.00;52.30;;;28.58;38.19;95046.94;5076519;28;20193;-20
2023/09/11 00:25:08;;;;;;;0.28;0.28;;;28.00;52.20;;;28.55;38.05;95042.97;5076413;28;20215;-20
2023/09/11 00:27:36;;;;;;;0.30;0.30;;;28.00;52.40;;;28.53;37.94;95039.75;5076470;28;20198;-21
2023/09/11 00:30:06;;;;;;;0.30;0.30;;;27.90;52.40;;;28.52;38.30;95046.25;5076579;28;20278;-20
2023/09/11 00:32:33;;;;;;;0.25;0.25;;;27.90;52.40;;;28.51;38.05;95036.56;5076320;28;20242;-20
2023/09/11 00:35:02;;;;;;;0.30;0.30;;;28.00;52.60;;;28.47;38.40;95038.28;5092142;28;20542;-20
2023/09/11 00:37:29;;;;;;;0.20;0.20;;;27.90;52.50;;;28.49;38.42;95049.56;5092543;28;20236;-21
2023/09/11 00:39:55;;;;;;;0.20;0.20;;;27.90;52.60;;;28.49;37.74;95048.75;5058574;28;20212;-20
2023/09/11 00:42:23;;;;;;;0.30;0.30;;;27.90;52.50;;;28.50;38.39;95042.25;5076401;28;20299;-20
2023/09/11 00:44:50;;;;;;;0.25;0.25;;;27.90;52.60;;;28.49;38.40;95044.16;5076524;28;20201;-20
2023/09/11 00:47:17;;;;;;;0.30;0.30;;;27.90;52.50;;;28.49;37.95;95038.78;5058319;28;20201;-20
2023/09/11 00:49:44;;;;;;;0.20;0.20;;;27.90;52.50;;;28.45;38.19;95021.56;5076735;28;20515;-21
2023/09/11 00:52:12;;;;;;;0.30;0.30;;;27.90;52.60;;;28.48;37.84;95034.47;5076219;28;20326;-20
2023/09/11 00:54:40;;;;;;;0.30;0.30;;;27.90;53.90;;;28.47;37.97;95032.09;5058249;28;20202;-20
2023/09/11 00:57:07;;;;;;;0.20;0.20;;;27.90;53.80;;;28.47;37.77;95032.09;5058142;28;20336;-20
2023/09/11 00:59:34;;;;;;;0.28;0.28;;;27.90;52.60;;;28.44;38.19;95026.19;5058205;28;20196;-20
2023/09/11 01:02:02;;;;;;;0.20;0.20;;;27.90;52.60;;;28.43;38.00;95027.28;5075833;28;20279;-20
2023/09/11 01:04:30;;;;;;;0.30;0.30;;;27.80;52.50;;;28.44;38.41;95031.59;5074591;28;20199;-21
2023/09/11 01:06:59;;;;;;;0.20;0.20;;;27.80;52.40;;;28.42;38.33;95028.38;5058120;28;20221;-20
2023/09/11 01:09:26;;;;;;;0.20;0.20;;;27.80;52.30;;;28.39;38.28;95029.00;5074647;28;20201;-20
2023/09/11 01:11:53;;;;;;;0.30;0.30;;;27.80;52.40;;;28.37;38.24;95027.69;5091521;28;20695;-20
2023/09/11 01:14:20;;;;;;;0.30;0.30;;;27.80;52.50;;;28.37;38.55;95027.69;5091475;28;20203;-20
2023/09/11 01:17:10;;;;;;;0.38;0.38;;;27.80;52.50;;;28.35;38.06;95024.50;5091624;28;20195;-20
2023/09/11 01:20:05;;;;;;;0.40;0.40;;;27.70;52.60;;;28.34;38.32;95028.31;5057822;28;20245;-20
2023/09/11 01:23:17;;;;;;;0.30;0.30;;;27.80;52.70;;;28.28;38.17;95028.41;5075593;28;20213;-20
2023/09/11 01:26:04;;;;;;;0.30;0.30;;;27.80;52.90;;;28.26;38.22;95019.03;5074267;28;20222;-20
2023/09/11 01:29:05;;;;;;;0.30;0.30;;;27.70;52.80;;;28.22;38.13;95016.16;5076279;28;20579;-21
2023/09/11 01:31:34;;;;;;;0.20;0.20;;;27.70;52.70;;;28.23;38.72;95017.72;5075045;28;20194;-20
2023/09/11 01:34:06;;;;;;;0.40;0.40;;;27.70;52.80;;;28.22;38.23;95016.16;5058242;28;20199;-20
2023/09/11 01:36:33;;;;;;;0.35;0.35;;;27.70;52.90;;;28.23;38.54;95014.22;5075347;28;20254;-22
2023/09/11 01:39:00;;;;;;;0.30;0.30;;;27.70;52.90;;;28.23;38.82;95020.41;5075133;28;20202;-20
2023/09/11 01:41:36;;;;;;;0.30;0.30;;;27.70;52.90;;;28.22;38.34;95016.16;5091054;28;20213;-22
2023/09/11 01:44:23;;;;;;;0.30;0.30;;;27.70;53.00;;;28.21;38.64;95011.03;5091515;28;20190;-20
2023/09/11 01:46:52;;;;;;;0.30;0.30;;;27.70;52.80;;;28.21;38.31;95017.25;5074969;28;20658;-20
2023/09/11 01:49:21;;;;;;;0.30;0.30;;;27.60;52.80;;;28.20;38.67;95015.63;5075592;28;20203;-20
2023/09/11 01:51:49;;;;;;;0.30;0.30;;;27.60;53.00;;;28.18;38.86;95023.22;5091191;28;20195;-22
2023/09/11 01:54:17;;;;;;;0.40;0.40;;;27.60;53.10;;;28.15;38.38;95023.84;5057662;28;20189;-21
2023/09/11 01:56:44;;;;;;;0.30;0.30;;;27.60;53.10;;;28.17;38.61;95031.63;5074866;28;20196;-20
2023/09/11 01:59:14;;;;;;;0.30;0.30;;;27.60;53.20;;;28.14;38.71;95022.25;5057318;28;20205;-20
2023/09/11 02:01:43;;;;;;;0.30;0.30;;;27.60;53.20;;;28.15;38.94;95023.03;5057338;28;20198;-22
2023/09/11 02:04:11;;;;;;;0.38;0.38;;;27.60;53.20;;;28.13;38.45;95017.16;5074840;28;20190;-20
2023/09/11 02:06:38;;;;;;;0.28;0.28;;;27.60;53.30;;;28.14;38.89;95024.94;5074937;28;20247;-20
2023/09/11 02:09:05;;;;;;;0.40;0.40;;;27.60;53.20;;;28.13;39.04;95015.25;5090705;28;20204;-20
2023/09/11 02:11:32;;;;;;;0.22;0.22;;;27.60;53.30;;;28.11;39.04;95017.44;5074650;28;20266;-20
2023/09/11 02:13:59;;;;;;;0.30;0.30;;;27.60;53.30;;;28.13;38.82;95019.84;5057231;28;20194;-20
2023/09/11 02:16:28;;;;;;;0.35;0.35;;;27.60;53.30;;;28.09;39.18;95006.97;5074721;28;20205;-21
2023/09/11 02:18:55;;;;;;;0.40;0.40;;;27.60;53.30;;;28.09;38.69;94998.09;5075396;28;20229;-21
2023/09/11 02:21:22;;;;;;;0.30;0.30;;;27.60;53.30;;;28.10;39.28;95000.47;5074957;28;20195;-20
2023/09/11 02:23:49;;;;;;;0.30;0.30;;;27.60;53.30;;;28.11;38.64;95003.94;5074745;28;20225;-20
2023/09/11 02:26:16;;;;;;;0.30;0.30;;;27.60;53.20;;;28.09;38.68;94998.88;5057026;28;20316;-20
2023/09/11 02:28:43;;;;;;;0.30;0.30;;;27.60;53.20;;;28.10;38.60;95008.56;5090888;28;20234;-20
2023/09/11 02:31:12;;;;;;;0.20;0.20;;;27.60;53.30;;;28.07;38.58;94995.66;5057693;28;20546;-20
2023/09/11 02:33:39;;;;;;;0.28;0.28;;;27.60;53.30;;;28.08;38.95;95001.88;5074981;28;20636;-20
2023/09/11 02:36:06;;;;;;;0.20;0.20;;;27.60;53.30;;;28.08;38.99;94993.78;5075856;28;20198;-22
2023/09/11 02:38:33;;;;;;;0.30;0.30;;;27.60;53.40;;;28.05;39.01;95005.97;5075374;28;20575;-23
2023/09/11 02:41:00;;;;;;;0.30;0.30;;;27.60;53.30;;;28.04;38.96;94998.94;5056836;28;20207;-23
2023/09/11 02:43:30;;;;;;;0.20;0.20;;;27.60;53.40;;;28.04;39.02;94998.94;5074490;28;20195;-23
2023/09/11 02:45:57;;;;;;;0.30;0.30;;;27.60;53.40;;;28.03;38.92;94999.25;5078191;28;20217;-23
2023/09/11 02:48:24;;;;;;;0.30;0.30;;;27.60;53.40;;;28.02;38.73;94997.66;5060634;28;20191;-23
2023/09/11 02:50:52;;;;;;;0.20;0.20;;;27.60;53.40;;;28.01;39.13;94996.06;5077564;28;20203;-23
2023/09/11 02:53:20;;;;;;;0.40;0.40;;;27.60;53.40;;;28.01;39.38;94994.16;5060591;28;20526;-23
2023/09/11 02:55:47;;;;;;;0.30;0.30;;;27.60;53.40;;;28.01;39.04;94996.06;5078192;28;20196;-23
2023/09/11 02:58:15;;;;;;;0.30;0.30;;;27.60;53.50;;;28.01;39.00;94996.06;5078294;28;20194;-23
2023/09/11 03:00:42;;;;;;;0.30;0.30;;;27.60;53.40;;;27.99;39.22;95006.34;5060504;28;20208;-23
2023/09/11 03:03:09;;;;;;;0.30;0.30;;;27.60;53.50;;;27.98;39.44;94997.47;5078295;28;20216;-23
2023/09/11 03:05:37;;;;;;;0.30;0.30;;;27.50;53.40;;;27.98;39.35;94997.47;5060384;28;20229;-23
2023/09/11 03:08:06;;;;;;;0.30;0.30;;;27.60;53.50;;;27.98;38.82;95000.16;5077750;28;20572;-23
2023/09/11 03:10:33;;;;;;;0.25;0.25;;;27.50;53.50;;;27.96;39.33;94996.94;5060301;28;20659;-23
2023/09/11 03:13:01;;;;;;;0.30;0.30;;;27.60;53.50;;;27.95;39.00;94995.34;5077708;28;20235;-23
2023/09/11 03:15:29;;;;;;;0.30;0.30;;;27.50;53.40;;;27.96;39.16;94996.94;5060265;28;20265;-23
2023/09/11 03:17:57;;;;;;;0.20;0.20;;;27.60;53.60;;;27.93;39.26;94998.34;5093558;28;20193;-23
2023/09/11 03:20:25;;;;;;;0.40;0.40;;;27.50;53.40;;;27.95;39.13;94988.06;5076497;28;20196;-23
2023/09/11 03:22:53;;;;;;;0.30;0.30;;;27.50;53.40;;;27.95;39.10;94982.69;5060069;28;20199;-22
2023/09/11 03:25:22;;;;;;;0.20;0.20;;;27.50;53.50;;;27.94;39.36;94991.88;5059958;28;20704;-23
2023/09/11 03:27:49;;;;;;;0.28;0.28;;;27.50;53.50;;;27.93;39.00;94979.47;5077820;28;20248;-22
2023/09/11 03:30:17;;;;;;;0.30;0.30;;;27.50;53.60;;;27.92;38.95;94985.97;5059881;28;20206;-23
2023/09/11 03:32:44;;;;;;;0.20;0.20;;;27.50;53.60;;;27.89;39.51;94986.59;5059863;28;20195;-23
2023/09/11 03:35:12;;;;;;;0.30;0.30;;;27.40;53.50;;;27.89;38.89;94985.78;5043404;28;20204;-22
2023/09/11 03:37:39;;;;;;;0.30;0.30;;;27.50;53.60;;;27.87;39.50;94978.00;5077311;28;20299;-23
2023/09/11 03:40:07;;;;;;;0.30;0.30;;;27.40;53.60;;;27.87;39.00;94982.56;5060357;28;20301;-23
2023/09/11 03:42:36;;;;;;;0.40;0.40;;;27.50;53.60;;;27.85;38.73;94979.41;5043469;28;20214;-23
2023/09/11 03:45:03;;;;;;;0.30;0.30;;;27.50;53.50;;;27.84;39.36;94983.97;5059615;28;20285;-23
2023/09/11 03:47:31;;;;;;;0.30;0.30;;;27.40;54.70;;;27.82;39.46;94982.69;5059342;28;20338;-22
2023/09/11 03:49:58;;;;;;;0.25;0.25;;;27.40;53.50;;;27.78;38.96;94979.78;5059548;28;20546;-22
2023/09/11 03:52:25;;;;;;;0.28;0.28;;;27.40;53.50;;;27.76;39.29;94982.00;5059507;28;20198;-23
2023/09/11 03:54:53;;;;;;;0.30;0.30;;;27.30;53.50;;;27.70;39.49;94975.13;5076025;28;20229;-23
2023/09/11 03:57:20;;;;;;;0.30;0.30;;;27.30;53.60;;;27.70;39.07;94975.91;5077024;28;20231;-22
2023/09/11 03:59:47;;;;;;;0.30;0.30;;;27.30;53.60;;;27.68;39.35;94974.59;5059302;28;20588;-23
2023/09/11 04:02:15;;;;;;;0.35;0.35;;;27.20;53.80;;;27.66;39.32;94974.09;5076951;28;20527;-23
2023/09/11 04:04:42;;;;;;;0.30;0.30;;;27.20;53.80;;;27.65;39.49;94976.00;5059312;28;20316;-23
2023/09/11 04:07:09;;;;;;;0.20;0.20;;;27.20;53.90;;;27.65;39.57;94976.00;5059133;28;20576;-23
2023/09/11 04:09:36;;;;;;;0.20;0.20;;;27.20;54.00;;;27.61;39.38;94978.50;5076953;28;20691;-22
2023/09/11 04:12:04;;;;;;;0.40;0.40;;;27.20;54.00;;;27.61;39.71;94975.00;5092473;28;20294;-22
2023/09/11 04:14:31;;;;;;;0.30;0.30;;;27.20;54.00;;;27.61;39.56;94975.00;5059096;28;20204;-23
2023/09/11 04:16:59;;;;;;;0.30;0.30;;;27.20;54.10;;;27.61;39.85;94966.91;5059061;28;20270;-23
2023/09/11 04:19:26;;;;;;;0.30;0.30;;;27.20;54.10;;;27.60;39.83;94976.09;5059340;28;20618;-22
2023/09/11 04:21:53;;;;;;;0.40;0.40;;;27.20;54.10;;;27.60;39.58;94968.00;5058961;28;20275;-23
2023/09/11 04:24:20;;;;;;;0.30;0.30;;;27.20;54.10;;;27.62;39.79;94968.50;5075631;28;20212;-23
2023/09/11 04:26:47;;;;;;;0.30;0.30;;;27.20;54.10;;;27.63;39.80;94972.81;5058816;28;20225;-22
2023/09/11 04:29:14;;;;;;;0.30;0.30;;;27.20;54.00;;;27.61;39.88;94972.28;5058667;28;20197;-23
2023/09/11 04:31:42;;;;;;;0.30;0.30;;;27.20;54.10;;;27.60;40.01;94974.19;5075048;28;20193;-23
2023/09/11 04:34:09;;;;;;;0.30;0.30;;;27.20;54.10;;;27.61;39.83;94972.28;5058691;28;20196;-23
2023/09/11 04:36:37;;;;;;;0.30;0.30;;;27.20;54.00;;;27.58;40.11;94973.69;5092064;28;20651;-22
2023/09/11 04:39:04;;;;;;;0.30;0.30;;;27.20;54.10;;;27.60;39.86;94978.78;5075142;28;20250;-23
2023/09/11 04:41:31;;;;;;;0.30;0.30;;;27.20;54.10;;;27.59;39.91;94975.28;5058625;28;20205;-23
2023/09/11 04:43:59;;;;;;;0.30;0.30;;;27.20;54.20;;;27.59;39.79;94975.28;5076434;28;20201;-22
2023/09/11 04:46:26;;;;;;;0.20;0.20;;;27.20;54.10;;;27.58;39.92;94975.59;5058440;28;20671;-22
2023/09/11 04:48:54;;;;;;;0.30;0.30;;;27.20;54.10;;;27.58;40.20;94972.91;5058270;28;20296;-22
2023/09/11 04:51:21;;;;;;;0.30;0.30;;;27.20;54.10;;;27.58;39.94;94972.91;5058382;28;20190;-22
2023/09/11 04:53:48;;;;;;;0.30;0.30;;;27.20;54.10;;;27.57;40.04;94966.69;5075034;28;20201;-23
2023/09/11 04:56:15;;;;;;;0.30;0.30;;;27.20;54.20;;;27.57;40.14;94972.09;5058333;28;20205;-23
2023/09/11 04:58:42;;;;;;;0.30;0.30;;;27.20;54.10;;;27.56;39.60;94965.13;5074877;28;20204;-23
2023/09/11 05:01:10;;;;;;;0.30;0.30;;;27.20;54.10;;;27.57;39.87;94972.09;5058267;28;20207;-23
2023/09/11 05:03:39;;;;;;;0.30;0.30;;;27.20;54.10;;;27.56;39.77;94981.28;5058193;28;20211;-23
2023/09/11 05:06:06;;;;;;;0.30;0.30;;;27.20;54.10;;;27.56;39.99;94978.59;5058058;28;20281;-24
2023/09/11 05:08:33;;;;;;;0.30;0.30;;;27.20;54.10;;;27.55;40.03;94973.50;5075270;28;20630;-23
2023/09/11 05:11:20;;;;;;;0.30;0.30;;;27.20;54.20;;;27.55;39.87;94977.00;5057859;28;20245;-23
2023/09/11 05:13:48;;;;;;;0.30;0.30;;;27.20;54.20;;;27.54;40.15;94974.59;5057938;28;20218;-23
2023/09/11 05:16:17;;;;;;;0.30;0.30;;;27.20;54.20;;;27.54;39.95;94978.09;5075516;28;20220;-22
2023/09/11 05:18:44;;;;;;;0.30;0.30;;;27.20;54.10;;;27.55;40.05;94977.00;5057782;28;20285;-23
2023/09/11 05:21:12;;;;;;;0.40;0.40;;;27.20;54.20;;;27.54;39.95;94975.41;5075439;28;20217;-23
2023/09/11 05:23:42;;;;;;;0.30;0.30;;;27.20;54.20;;;27.53;39.97;94973.00;5057776;28;20215;-23
2023/09/11 05:26:10;;;;;;;0.30;0.30;;;27.20;54.30;;;27.53;40.07;94986.47;5075608;28;20261;-23
2023/09/11 05:28:37;;;;;;;0.30;0.30;;;27.20;54.30;;;27.54;40.27;94988.88;5075145;28;20584;-23
2023/09/11 05:31:05;;;;;;;0.30;0.30;;;27.20;54.30;;;27.53;40.15;94983.78;5075539;28;20188;-23
2023/09/11 05:33:32;;;;;;;0.28;0.28;;;27.20;54.40;;;27.52;40.18;94988.34;5075281;28;20195;-22
2023/09/11 05:35:59;;;;;;;0.30;0.30;;;27.20;54.40;;;27.53;39.92;94989.19;5075214;28;20236;-23
2023/09/11 05:38:26;;;;;;;0.30;0.30;;;27.20;54.30;;;27.53;40.39;94989.19;5075114;28;20680;-23
2023/09/11 05:40:54;;;;;;;0.30;0.30;;;27.20;54.40;;;27.53;40.49;94995.34;5057785;28;20193;-23
2023/09/11 05:43:21;;;;;;;0.30;0.30;;;27.20;54.40;;;27.54;40.13;94994.25;5075120;28;20193;-22
2023/09/11 05:45:48;;;;;;;0.20;0.20;;;27.20;54.40;;;27.55;40.66;94995.03;5075081;28;20218;-23
2023/09/11 05:48:15;;;;;;;0.20;0.20;;;27.20;54.50;;;27.55;40.44;95003.94;5074852;28;20222;-23
2023/09/11 05:50:42;;;;;;;0.30;0.30;;;27.20;54.40;;;27.53;40.25;94994.56;5090876;28;20210;-24
2023/09/11 05:53:09;;;;;;;0.30;0.30;;;27.20;54.50;;;27.55;40.02;95006.63;5075025;28;20272;-23
2023/09/11 05:55:37;;;;;;;0.30;0.30;;;27.20;54.50;;;27.54;40.06;94998.84;5075007;28;20289;-23
2023/09/11 05:58:04;;;;;;;0.30;0.30;;;27.20;54.50;;;27.53;40.54;94995.34;5090738;28;20511;-24
2023/09/11 06:00:31;;;;;;;0.40;0.40;;;27.20;54.60;;;27.54;40.26;94998.84;5075085;28;20200;-23
2023/09/11 06:02:58;;;;;;;0.22;0.22;;;27.20;54.60;;;27.55;40.20;94995.03;5074900;28;20197;-23
2023/09/11 06:05:25;;;;;;;0.30;0.30;;;27.20;54.60;;;27.55;40.37;94995.03;5074861;28;20243;-23
2023/09/11 06:07:52;;;;;;;0.30;0.30;;;27.20;54.60;;;27.55;40.39;94993.16;5075080;28;20206;-23
2023/09/11 06:10:19;;;;;;;0.30;0.30;;;27.20;54.60;;;27.55;40.59;94995.84;5074982;28;20228;-23
2023/09/11 06:12:47;;;;;;;0.30;0.30;;;27.20;54.60;;;27.56;40.31;94994.75;5074646;28;20682;-23
2023/09/11 06:15:15;;;;;;;0.35;0.35;;;27.20;54.70;;;27.57;40.62;94996.34;5090525;28;20209;-23
2023/09/11 06:17:42;;;;;;;0.30;0.30;;;27.20;54.70;;;27.56;40.79;94994.75;5075062;28;20272;-23
2023/09/11 06:20:15;;;;;;;0.30;0.30;;;27.20;54.70;;;27.57;40.56;94996.34;5079641;28;20190;-22
2023/09/11 06:22:43;;;;;;;0.30;0.30;;;27.20;54.70;;;27.56;40.82;95002.03;5079500;28;20610;-30
2023/09/11 06:25:10;;;;;;;0.30;0.30;;;27.20;54.90;;;27.58;40.87;94999.84;5079225;28;20657;-23
2023/09/11 06:27:37;;;;;;;0.30;0.30;;;27.30;55.00;;;27.58;40.45;94997.94;5078945;28;20537;-23
2023/09/11 06:30:05;;;;;;;0.30;0.30;;;27.30;55.00;;;27.58;40.75;94991.78;5079577;28;20194;-22
2023/09/11 06:32:36;;;;;;;0.22;0.22;;;27.30;55.10;;;27.57;41.11;94993.66;5078745;28;20197;-25
2023/09/11 06:35:06;;;;;;;0.30;0.30;;;27.30;55.20;;;27.59;40.96;94996.84;5078785;28;20200;-23
2023/09/11 06:37:34;;;;;;;0.20;0.20;;;27.30;55.10;;;27.59;41.13;94993.38;5061122;28;20194;-22
2023/09/11 06:40:01;;;;;;;0.30;0.30;;;27.30;55.20;;;27.60;40.82;94997.63;5078959;28;20634;-22
2023/09/11 06:42:28;;;;;;;0.30;0.30;;;27.30;55.20;;;27.59;40.72;94990.69;5078727;28;20604;-24
2023/09/11 06:44:55;;;;;;;0.40;0.40;;;27.30;55.20;;;27.60;40.64;94992.25;5078560;28;20672;-22
2023/09/11 06:47:22;;;;;;;0.30;0.30;;;27.30;55.30;;;27.64;40.98;94996.75;5094272;28;20226;-23
2023/09/11 06:49:49;;;;;;;0.25;0.25;;;27.30;55.20;;;27.64;41.17;94987.88;5078623;28;20210;-22
2023/09/11 06:52:18;;;;;;;0.28;0.28;;;27.40;55.40;;;27.63;41.39;94991.66;5078389;28;20279;-22
2023/09/11 06:54:45;;;;;;;0.20;0.20;;;27.30;55.40;;;27.66;41.04;94998.34;5078650;28;20278;-23
2023/09/11 06:57:13;;;;;;;0.30;0.30;;;27.40;55.50;;;27.65;41.18;94994.88;5078231;28;20217;-22
2023/09/11 06:59:40;;;;;;;0.30;0.30;;;27.30;55.50;;;27.63;41.06;94994.34;5078086;28;20215;-22
2023/09/11 07:02:08;;;;;;;0.30;0.30;;;27.30;55.50;;;27.64;41.15;94999.44;5078459;28;20547;-23
2023/09/11 07:04:35;;;;;;;0.30;0.30;;;27.30;55.60;;;27.68;41.24;94994.25;5094347;28;20584;-23
2023/09/11 07:07:02;;;;;;;0.25;0.25;;;27.30;55.60;;;27.70;41.29;94992.06;5078273;28;20232;-23
2023/09/11 07:09:29;;;;;;;0.28;0.28;;;27.40;55.70;;;27.69;41.04;94993.16;5078333;28;20247;-23
2023/09/11 07:11:56;;;;;;;0.30;0.30;;;27.40;55.70;;;27.71;41.03;94992.84;5077842;28;20228;-24
2023/09/11 07:14:24;;;;;;;0.35;0.35;;;27.40;55.70;;;27.70;41.18;94997.47;5077956;28;20197;-23
2023/09/11 07:16:51;;;;;;;0.30;0.30;;;27.40;55.80;;;27.70;41.07;94996.69;5077876;28;20191;-23
2023/09/11 07:19:18;;;;;;;0.20;0.20;;;27.40;55.80;;;27.72;41.38;94997.16;5077803;28;20205;-23
2023/09/11 07:21:45;;;;;;;0.20;0.20;;;27.40;55.90;;;27.73;41.44;95001.44;5078132;28;20577;-23
2023/09/11 07:24:12;;;;;;;0.40;0.40;;;27.40;56.00;;;27.74;41.11;95003.06;5077825;28;20278;-22
2023/09/11 07:26:39;;;;;;;0.20;0.20;;;27.40;56.00;;;27.75;41.38;95010.03;5077547;28;20720;-22
2023/09/11 07:29:07;;;;;;;0.35;0.35;;;27.40;55.90;;;27.74;41.42;95005.75;5077578;28;20701;-23
2023/09/11 07:31:36;;;;;;;0.30;0.30;;;27.40;55.90;;;27.75;41.58;95010.81;5077375;28;20196;-22
2023/09/11 07:34:04;;;;;;;0.20;0.20;;;27.40;56.00;;;27.77;41.34;95005.13;5077197;28;20185;-22
2023/09/11 07:36:31;;;;;;;0.30;0.30;;;27.40;56.00;;;27.78;41.45;95014.81;5077461;28;20192;-22
2023/09/11 07:38:58;;;;;;;0.30;0.30;;;27.40;56.00;;;27.79;41.27;95002.94;5077535;28;20219;-23
2023/09/11 07:41:25;;;;;;;0.20;0.20;;;27.40;56.00;;;27.80;41.59;95013.41;5077397;28;20191;-22
2023/09/11 07:43:53;;;;;;;0.30;0.30;;;27.40;56.10;;;27.80;41.22;95008.03;5077348;28;20197;-22
2023/09/11 07:46:24;;;;;;;0.30;0.30;;;27.50;56.10;;;27.80;41.39;95004.53;5077284;28;20640;-22
2023/09/11 07:48:51;;;;;;;0.40;0.40;;;27.50;56.20;;;27.83;41.68;94992.38;5077427;28;20639;-22
2023/09/11 07:51:18;;;;;;;0.20;0.20;;;27.50;56.20;;;27.81;41.67;95000.75;5077081;28;20219;-20
2023/09/11 07:53:45;;;;;;;0.30;0.30;;;27.50;56.20;;;27.85;41.58;95009.03;5077453;28;20194;-20
2023/09/11 07:56:13;;;;;;;0.30;0.30;;;27.50;56.10;;;27.86;41.52;95002.56;5077664;28;20214;-46
2023/09/11 07:58:41;;;;;;;0.20;0.20;;;27.50;56.10;;;27.87;41.63;95001.44;5077632;28;20221;-20
2023/09/11 08:01:09;;;;;;;0.30;0.30;;;27.50;56.10;;;27.89;41.65;94999.25;5076301;28;20240;-23
2023/09/11 08:03:36;;;;;;;0.30;0.30;;;27.50;56.10;;;27.90;41.36;95006.25;5076245;28;20208;-22
2023/09/11 08:06:04;;;;;;;0.30;0.30;;;27.50;56.10;;;27.91;42.02;94997.84;5077494;28;20192;-22
2023/09/11 08:08:31;;;;;;;0.25;0.25;;;27.50;56.10;;;27.94;41.66;95002.66;5077052;28;20260;-24
2023/09/11 08:10:59;;;;;;;0.40;0.40;;;27.60;56.20;;;27.92;41.86;94994.06;5077624;28;20205;-22
2023/09/11 08:13:26;;;;;;;0.30;0.30;;;27.50;56.10;;;27.96;41.46;94994.25;5092460;28;20302;-22
2023/09/11 08:15:53;;;;;;;0.30;0.30;;;27.60;56.20;;;27.96;41.85;94994.25;5092862;28;20291;-22
2023/09/11 08:18:21;;;;;;;0.30;0.30;;;27.60;56.10;;;27.96;41.81;94986.16;5076960;28;20193;-22
2023/09/11 08:20:49;;;;;;;0.30;0.30;;;27.60;56.10;;;27.99;41.86;94992.84;5076799;28;20227;-23
2023/09/11 08:23:18;;;;;;;0.30;0.30;;;27.60;56.20;;;28.00;41.54;94986.38;5076795;28;20201;-23
2023/09/11 08:25:45;;;;;;;0.30;0.30;;;27.60;56.10;;;28.00;41.75;94981.75;5076561;28;20221;-23
2023/09/11 08:28:12;;;;;;;0.20;0.20;;;27.60;56.10;;;28.04;41.56;94996.25;5076699;28;20238;-22
2023/09/11 08:30:39;;;;;;;0.30;0.30;;;27.60;56.10;;;28.01;41.70;94991.44;5076976;28;20278;-23
2023/09/11 08:33:08;;;;;;;0.20;0.20;;;27.60;56.00;;;28.05;41.55;94991.69;5092333;28;20203;-22
2023/09/11 08:35:35;;;;;;;0.30;0.30;;;27.70;56.10;;;28.06;41.26;94985.19;5076289;28;20613;-22
2023/09/11 08:38:04;;;;;;;0.30;0.30;;;27.70;56.10;;;28.08;41.63;94993.78;5076273;28;20266;-23
2023/09/11 08:40:31;;;;;;;0.30;0.30;;;27.70;56.10;;;28.09;41.86;94995.38;5076171;28;20284;-23
2023/09/11 08:42:59;;;;;;;0.30;0.30;;;27.70;56.10;;;28.10;41.97;94988.91;5075271;28;20724;-22
2023/09/11 08:45:26;;;;;;;0.30;0.30;;;27.70;56.00;;;28.11;41.48;94993.97;5059042;28;20205;-22
2023/09/11 08:47:58;;;;;;;0.30;0.30;;;27.70;57.30;;;28.13;41.50;94993.66;5076304;28;20279;-22
2023/09/11 08:50:31;;;;;;;0.30;0.30;;;27.80;56.10;;;28.13;41.48;94995.59;5076706;28;20598;-22
2023/09/11 08:52:59;;;;;;;0.28;0.28;;;27.70;56.00;;;28.15;41.61;94990.66;5091376;28;20188;-23
2023/09/11 08:55:29;;;;;;;0.30;0.30;;;27.80;56.00;;;28.18;41.42;94998.94;5075918;28;20204;-23
2023/09/11 08:58:05;;;;;;;0.20;0.20;;;27.80;56.00;;;28.19;41.60;94991.69;5076207;28;20195;-23
2023/09/11 09:00:32;;;;;;;0.30;0.30;;;27.80;56.00;;;28.20;41.62;94985.19;5092075;28;20685;-23
2023/09/11 09:03:03;;;;;;;0.22;0.22;;;27.80;56.00;;;28.22;41.21;94991.06;5091724;28;20195;-23
2023/09/11 09:05:33;;;;;;;0.30;0.30;;;27.80;55.90;;;28.22;41.16;94989.19;5058750;28;20183;-23
2023/09/11 09:08:03;;;;;;;0.30;0.30;;;27.80;56.00;;;28.25;41.10;94985.06;5075606;28;20237;-23
2023/09/11 09:10:30;;;;;;;0.30;0.30;;;27.80;56.00;;;28.25;41.14;94979.69;5058312;28;20283;-24
2023/09/11 09:12:57;;;;;;;0.22;0.22;;;27.80;55.90;;;28.26;41.59;94978.59;5075577;28;20229;-23
2023/09/11 09:15:28;;;;;;;0.28;0.28;;;27.80;55.90;;;28.28;41.58;94979.06;5058159;28;20278;-24
2023/09/11 09:17:55;;;;;;;0.40;0.40;;;27.90;56.00;;;28.30;41.13;94976.84;5076059;28;20199;-23
2023/09/11 09:20:22;;;;;;;0.30;0.30;;;27.90;56.00;;;28.31;41.58;94978.47;5075353;28;20197;-23
2023/09/11 09:22:56;;;;;;;0.30;0.30;;;27.90;55.90;;;28.33;41.41;94970.88;5058121;28;20253;-23
2023/09/11 09:25:24;;;;;;;0.20;0.20;;;27.90;56.90;;;28.36;41.55;94972.16;5076006;28;20186;-22
2023/09/11 09:27:53;;;;;;;0.30;0.30;;;27.90;55.80;;;28.37;41.52;94971.03;5075541;28;20214;-23
2023/09/11 09:30:31;;;;;;;0.20;0.20;;;27.90;55.80;;;28.38;40.88;94973.44;5075196;28;20283;-23
2023/09/11 09:33:01;;;;;;;0.30;0.30;;;28.00;55.80;;;28.39;41.13;94972.34;5075480;28;20183;-23
2023/09/11 09:35:33;;;;;;;0.30;0.30;;;28.00;55.70;;;28.39;41.06;94968.84;5091669;28;20226;-23
2023/09/11 09:38:01;;;;;;;0.30;0.30;;;28.00;55.80;;;28.43;41.36;94969.84;5075245;28;20184;-22
2023/09/11 09:40:37;;;;;;;0.30;0.30;;;28.00;55.70;;;28.45;41.46;94973.00;5075084;28;20194;-23
2023/09/11 09:43:08;;;;;;;0.30;0.30;;;28.00;55.70;;;28.44;41.58;94961.44;5075469;28;20194;-22
2023/09/11 09:45:42;;;;;;;0.30;0.30;;;28.00;55.70;;;28.46;40.91;94961.13;5075399;28;20197;-23
2023/09/11 09:48:12;;;;;;;0.30;0.30;;;28.00;55.60;;;28.50;40.87;94956.69;5075326;28;20294;-23
2023/09/11 09:50:59;;;;;;;0.30;0.30;;;28.10;55.70;;;28.49;41.46;94948.91;5075348;28;20195;-23
2023/09/11 09:53:35;;;;;;;0.30;0.30;;;28.10;55.50;;;28.51;41.28;94952.13;5075002;28;20178;-23
2023/09/11 09:56:07;;;;;;;0.30;0.30;;;28.10;55.50;;;28.54;41.39;94943.41;5075340;28;20517;-22
2023/09/11 09:58:40;;;;;;;0.30;0.30;;;28.10;55.50;;;28.55;40.78;94945.00;5074998;28;20197;-23
2023/09/11 10:01:17;;;;;;;0.30;0.30;;;28.10;55.50;;;28.56;40.92;94939.31;5074994;28;20249;-23
2023/09/11 10:03:48;;;;;;;0.20;0.20;;;28.10;55.50;;;28.58;41.26;94937.09;5074971;28;20239;-23
2023/09/11 10:06:27;;;;;;;0.30;0.30;;;28.10;55.40;;;28.59;40.82;94937.91;5075224;28;20219;-23
2023/09/11 10:09:07;;;;;;;0.30;0.30;;;28.20;55.50;;;28.61;40.72;94941.06;5075129;28;20234;-23
2023/09/11 10:11:37;;;;;;;0.30;0.30;;;28.20;55.40;;;28.63;40.90;94930.78;5074537;28;20621;-23
2023/09/11 10:14:08;;;;;;;0.20;0.20;;;28.20;55.50;;;28.65;40.87;94939.38;5075083;28;20237;-24
2023/09/11 10:16:35;;;;;;;0.20;0.20;;;28.20;55.40;;;28.68;40.74;94935.25;5075134;28;20255;-23
2023/09/11 10:19:03;;;;;;;0.38;0.38;;;28.20;55.40;;;28.71;41.15;94940.06;5075062;28;20223;-23
2023/09/11 10:21:32;;;;;;;0.30;0.30;;;28.30;55.50;;;28.71;40.58;94932.78;5075069;28;20642;-23
2023/09/11 10:23:59;;;;;;;0.30;0.30;;;28.30;55.50;;;28.74;40.80;94925.97;5074790;28;20319;-23
2023/09/11 10:26:50;;;;;;;0.30;0.30;;;28.30;55.50;;;28.76;40.86;94929.16;5074965;28;20578;-23